createdAt,value
2019-02-17T00:00:39.150Z,99.90
2019-02-17T00:03:08.191Z,99.90
2019-02-17T00:05:37.097Z,99.90
2019-02-17T00:08:06.340Z,99.90
2019-02-17T00:10:36.260Z,99.90
2019-02-17T00:13:05.143Z,99.90
2019-02-17T00:15:34.063Z,99.90
2019-02-17T00:18:03.024Z,99.90
2019-02-17T00:20:31.899Z,99.90
2019-02-17T00:23:00.715Z,99.90
2019-02-17T00:25:31.935Z,99.90
2019-02-17T00:28:00.803Z,99.90
2019-02-17T00:30:29.888Z,99.90
2019-02-17T00:32:58.865Z,99.90
2019-02-17T00:35:27.758Z,99.90
2019-02-17T00:37:56.710Z,99.90
2019-02-17T00:40:25.532Z,99.90
2019-02-17T00:42:54.421Z,99.90
2019-02-17T00:45:23.256Z,99.90
2019-02-17T00:47:52.177Z,99.90
2019-02-17T00:50:20.982Z,99.90
2019-02-17T00:52:49.987Z,99.90
2019-02-17T00:55:18.843Z,99.90
2019-02-17T00:57:47.728Z,99.90
2019-02-17T01:00:16.678Z,99.90
2019-02-17T01:02:45.762Z,99.90
2019-02-17T01:05:14.709Z,99.90
2019-02-17T01:07:43.485Z,99.90
2019-02-17T01:10:12.346Z,99.90
2019-02-17T01:12:41.247Z,99.90
2019-02-17T01:15:10.470Z,99.90
2019-02-17T01:17:39.331Z,99.90
2019-02-17T01:20:08.294Z,99.90
2019-02-17T01:22:37.079Z,99.90
2019-02-17T01:25:06.131Z,99.90
2019-02-17T01:27:35.061Z,99.90
2019-02-17T01:30:03.986Z,99.90
2019-02-17T01:32:32.798Z,99.90
2019-02-17T01:35:01.666Z,99.90
2019-02-17T01:37:30.486Z,99.90
2019-02-17T01:39:59.271Z,99.90
2019-02-17T01:42:28.265Z,99.90
2019-02-17T01:44:57.188Z,99.90
2019-02-17T01:47:25.953Z,99.90
2019-02-17T01:49:54.848Z,99.90
2019-02-17T01:52:23.802Z,99.90
2019-02-17T01:54:52.682Z,99.90
2019-02-17T01:57:21.432Z,99.90
2019-02-17T01:59:50.374Z,99.90
2019-02-17T02:02:19.411Z,99.90
2019-02-17T02:04:48.223Z,99.90
2019-02-17T02:07:17.150Z,99.90
2019-02-17T02:09:45.951Z,99.90
2019-02-17T02:12:14.852Z,99.90
2019-02-17T02:14:43.750Z,99.90
2019-02-17T02:17:12.663Z,99.90
2019-02-17T02:19:41.695Z,99.90
2019-02-17T02:22:19.758Z,99.90
2019-02-17T02:24:48.751Z,99.90
2019-02-17T02:27:17.607Z,99.90
2019-02-17T02:29:46.391Z,99.90
2019-02-17T02:32:15.159Z,99.90
2019-02-17T02:34:44.147Z,99.90
2019-02-17T02:37:13.138Z,99.90
2019-02-17T02:39:41.987Z,99.90
2019-02-17T02:42:10.829Z,99.90
2019-02-17T02:44:39.641Z,99.90
2019-02-17T02:47:08.558Z,99.90
2019-02-17T02:49:37.495Z,99.90
2019-02-17T02:52:06.306Z,99.90
2019-02-17T02:54:35.062Z,99.90
2019-02-17T02:57:04.079Z,99.90
2019-02-17T02:59:35.166Z,99.90
2019-02-17T03:02:04.071Z,99.90
2019-02-17T03:04:33.168Z,99.90
2019-02-17T03:07:04.701Z,99.90
2019-02-17T03:09:33.676Z,99.90
2019-02-17T03:12:02.503Z,99.90
2019-02-17T03:14:31.408Z,99.90
2019-02-17T03:17:00.909Z,99.90
2019-02-17T03:19:29.863Z,99.90
2019-02-17T03:21:58.921Z,99.90
2019-02-17T03:24:27.732Z,99.90
2019-02-17T03:26:56.740Z,99.90
2019-02-17T03:29:25.618Z,99.90
2019-02-17T03:31:54.595Z,99.90
2019-02-17T03:34:23.337Z,99.90
2019-02-17T03:36:52.184Z,99.90
2019-02-17T03:39:21.068Z,99.90
2019-02-17T03:41:49.843Z,99.90
2019-02-17T03:44:18.863Z,99.90
2019-02-17T03:46:47.659Z,99.90
2019-02-17T03:49:16.442Z,99.90
2019-02-17T03:51:45.220Z,99.90
2019-02-17T03:54:14.108Z,99.90
2019-02-17T03:56:42.959Z,99.90
2019-02-17T03:59:13.052Z,99.90
2019-02-17T04:01:41.818Z,99.90
2019-02-17T04:04:11.245Z,99.90
2019-02-17T04:06:40.200Z,99.90
2019-02-17T04:09:09.267Z,99.90
2019-02-17T04:11:38.226Z,99.90
2019-02-17T04:14:07.287Z,99.90
2019-02-17T04:16:36.097Z,99.90
2019-02-17T04:19:05.017Z,99.90
2019-02-17T04:21:33.941Z,99.90
2019-02-17T04:24:02.750Z,99.90
2019-02-17T04:26:31.542Z,99.90
2019-02-17T04:29:00.348Z,99.90
2019-02-17T04:31:29.431Z,99.90
2019-02-17T04:33:58.283Z,99.90
2019-02-17T04:36:27.148Z,99.90
2019-02-17T04:38:56.139Z,99.90
2019-02-17T04:41:25.070Z,99.90
2019-02-17T04:43:54.238Z,99.90
2019-02-17T04:46:23.125Z,99.90
2019-02-17T04:48:52.198Z,99.90
2019-02-17T04:51:21.024Z,99.90
2019-02-17T04:53:49.902Z,99.90
2019-02-17T04:56:18.662Z,99.90
2019-02-17T04:58:47.684Z,99.90
2019-02-17T05:01:16.470Z,99.90
2019-02-17T05:03:45.365Z,99.90
2019-02-17T05:06:14.419Z,99.90
2019-02-17T05:08:43.244Z,99.90
2019-02-17T05:11:12.103Z,99.90
2019-02-17T05:13:40.879Z,99.90
2019-02-17T05:16:11.020Z,99.90
2019-02-17T05:18:39.862Z,99.90
2019-02-17T05:21:08.687Z,99.90
2019-02-17T05:23:37.467Z,99.90
2019-02-17T05:26:06.324Z,99.90
2019-02-17T05:28:35.070Z,99.90
2019-02-17T05:31:03.979Z,99.90
2019-02-17T05:33:32.911Z,99.90
2019-02-17T05:36:01.741Z,99.90
2019-02-17T05:38:30.700Z,99.90
2019-02-17T05:40:59.523Z,99.90
2019-02-17T05:43:28.366Z,99.90
2019-02-17T05:45:57.202Z,99.90
2019-02-17T05:48:26.011Z,99.90
2019-02-17T05:50:54.939Z,99.90
2019-02-17T05:53:23.668Z,99.90
2019-02-17T05:55:52.464Z,99.90
2019-02-17T05:58:21.261Z,99.90
2019-02-17T06:00:50.408Z,99.90
2019-02-17T06:03:19.220Z,99.90
2019-02-17T06:05:48.038Z,99.90
2019-02-17T06:08:16.895Z,99.90
2019-02-17T06:10:45.759Z,99.90
2019-02-17T06:13:14.561Z,99.90
2019-02-17T06:15:43.337Z,99.90
2019-02-17T06:18:13.402Z,99.90
2019-02-17T06:20:42.247Z,99.90
2019-02-17T06:23:14.303Z,99.90
2019-02-17T06:25:43.413Z,99.90
2019-02-17T06:28:12.299Z,99.90
2019-02-17T06:30:43.100Z,99.90
2019-02-17T06:33:12.661Z,99.90
2019-02-17T06:35:43.202Z,99.90
2019-02-17T06:38:12.060Z,99.90
2019-02-17T06:40:40.931Z,99.90
2019-02-17T06:43:09.883Z,99.90
2019-02-17T06:45:38.744Z,99.90
2019-02-17T06:48:07.904Z,99.90
2019-02-17T06:50:38.507Z,99.90
2019-02-17T06:53:07.405Z,99.90
2019-02-17T06:55:55.325Z,99.90
2019-02-17T06:58:24.232Z,99.90
2019-02-17T07:00:54.751Z,99.90
2019-02-17T07:03:23.543Z,99.90
2019-02-17T07:06:11.462Z,99.90
2019-02-17T07:08:40.287Z,99.90
2019-02-17T07:11:09.175Z,99.90
2019-02-17T07:13:38.150Z,99.90
2019-02-17T07:16:06.940Z,99.90
2019-02-17T07:18:37.059Z,99.90
2019-02-17T07:21:11.398Z,99.90
2019-02-17T07:23:40.248Z,99.90
2019-02-17T07:26:09.402Z,99.90
2019-02-17T07:28:38.176Z,99.90
2019-02-17T07:31:07.097Z,99.90
2019-02-17T07:33:36.101Z,99.90
2019-02-17T07:36:05.314Z,99.90
2019-02-17T07:38:34.122Z,99.90
2019-02-17T07:41:02.938Z,99.90
2019-02-17T07:43:35.472Z,99.90
2019-02-17T07:46:04.499Z,99.90
2019-02-17T07:48:33.490Z,99.90
2019-02-17T07:51:03.726Z,99.90
2019-02-17T07:53:35.688Z,99.90
2019-02-17T07:56:04.608Z,99.90
2019-02-17T07:58:33.438Z,99.90
2019-02-17T08:01:02.644Z,99.90
2019-02-17T08:03:33.121Z,99.90
2019-02-17T08:06:02.329Z,99.90
2019-02-17T08:08:31.133Z,99.90
2019-02-17T08:11:03.911Z,99.90
2019-02-17T08:13:30.411Z,99.90
2019-02-17T08:15:59.146Z,99.90
2019-02-17T08:18:27.957Z,99.90
2019-02-17T08:20:56.736Z,99.90
2019-02-17T08:23:25.628Z,99.90
2019-02-17T08:25:54.433Z,99.90
2019-02-17T08:28:23.381Z,99.90
2019-02-17T08:30:52.291Z,99.90
2019-02-17T08:33:21.174Z,99.90
2019-02-17T08:35:49.966Z,99.90
2019-02-17T08:38:18.718Z,99.90
2019-02-17T08:40:47.526Z,99.90
2019-02-17T08:43:16.348Z,99.90
2019-02-17T08:45:45.418Z,99.90
2019-02-17T08:48:14.212Z,99.90
2019-02-17T08:50:43.059Z,99.90
2019-02-17T08:53:11.919Z,99.90
2019-02-17T08:55:40.730Z,99.90
2019-02-17T08:58:09.895Z,99.90
2019-02-17T09:00:38.975Z,99.90
2019-02-17T09:03:07.816Z,99.90
2019-02-17T09:05:43.929Z,99.90
2019-02-17T09:08:07.384Z,99.90
2019-02-17T09:10:36.257Z,99.90
2019-02-17T09:13:05.161Z,99.90
2019-02-17T09:15:34.180Z,99.90
2019-02-17T09:18:03.171Z,99.90
2019-02-17T09:20:32.101Z,99.90
2019-02-17T09:23:00.934Z,99.90
2019-02-17T09:25:33.776Z,99.90
2019-02-17T09:28:02.703Z,99.90
2019-02-17T09:30:31.649Z,99.90
2019-02-17T09:33:03.251Z,99.90
2019-02-17T09:35:33.772Z,99.90
2019-02-17T09:38:02.680Z,99.90
2019-02-17T09:40:31.484Z,99.90
2019-02-17T09:43:00.605Z,99.90
2019-02-17T09:45:29.559Z,99.90
2019-02-17T09:47:58.328Z,99.90
2019-02-17T09:50:27.129Z,99.90
2019-02-17T09:52:55.940Z,99.90
2019-02-17T09:55:24.773Z,99.90
2019-02-17T09:57:53.715Z,99.90
2019-02-17T10:00:22.570Z,99.90
2019-02-17T10:02:51.361Z,99.90
2019-02-17T10:05:20.149Z,99.90
2019-02-17T10:07:51.172Z,99.90
2019-02-17T10:10:19.634Z,99.90
2019-02-17T10:12:48.419Z,99.90
2019-02-17T10:15:17.262Z,99.90
2019-02-17T10:17:46.032Z,99.90
2019-02-17T10:20:15.456Z,99.90
2019-02-17T10:22:50.363Z,99.10
2019-02-17T10:25:21.741Z,99.10
2019-02-17T10:27:51.461Z,98.50
2019-02-17T10:30:21.413Z,98.40
2019-02-17T10:32:50.637Z,98.20
2019-02-17T10:35:19.640Z,97.90
2019-02-17T10:37:48.759Z,98.40
2019-02-17T10:40:17.551Z,97.40
2019-02-17T10:42:46.339Z,97.60
2019-02-17T10:45:15.374Z,97.40
2019-02-17T10:47:44.248Z,97.10
2019-02-17T10:50:13.205Z,97.30
2019-02-17T10:52:42.047Z,97.50
2019-02-17T10:55:11.124Z,97.20
2019-02-17T10:57:40.087Z,97.30
2019-02-17T11:00:12.361Z,97.30
2019-02-17T11:02:47.079Z,97.00
2019-02-17T11:05:11.864Z,97.10
2019-02-17T11:07:40.649Z,96.70
2019-02-17T11:10:09.761Z,96.80
2019-02-17T11:12:38.693Z,96.50
2019-02-17T11:15:09.509Z,96.70
2019-02-17T11:17:38.733Z,96.40
2019-02-17T11:20:07.727Z,96.00
2019-02-17T11:22:36.507Z,95.40
2019-02-17T11:25:05.431Z,95.30
2019-02-17T11:27:34.241Z,95.00
2019-02-17T11:30:05.441Z,94.40
2019-02-17T11:32:33.931Z,94.80
2019-02-17T11:35:02.808Z,94.90
2019-02-17T11:37:31.637Z,94.90
2019-02-17T11:40:00.426Z,94.20
2019-02-17T11:42:29.235Z,94.00
2019-02-17T11:44:58.165Z,93.90
2019-02-17T11:47:27.035Z,93.50
2019-02-17T11:49:55.901Z,93.60
2019-02-17T11:52:24.858Z,93.30
2019-02-17T11:54:53.727Z,92.60
2019-02-17T11:57:22.694Z,92.50
2019-02-17T11:59:51.505Z,92.40
2019-02-17T12:02:25.100Z,92.50
2019-02-17T12:04:51.012Z,92.20
2019-02-17T12:07:19.822Z,92.00
2019-02-17T12:09:48.612Z,91.70
2019-02-17T12:12:17.376Z,92.30
2019-02-17T12:14:46.140Z,91.70
2019-02-17T12:17:14.940Z,91.50
2019-02-17T12:19:43.679Z,91.90
2019-02-17T12:22:31.576Z,91.70
2019-02-17T12:25:10.485Z,91.00
2019-02-17T12:27:53.036Z,90.10
2019-02-17T12:30:23.638Z,90.30
2019-02-17T12:32:52.457Z,91.00
2019-02-17T12:35:21.257Z,91.30
2019-02-17T12:37:50.117Z,91.00
2019-02-17T12:40:18.911Z,91.30
2019-02-17T12:42:47.744Z,90.80
2019-02-17T12:45:18.413Z,90.80
2019-02-17T12:47:57.008Z,90.60
2019-02-17T12:50:17.880Z,90.80
2019-02-17T12:52:47.929Z,90.80
2019-02-17T12:55:16.805Z,90.80
2019-02-17T12:57:45.610Z,90.80
2019-02-17T13:00:16.638Z,90.60
2019-02-17T13:02:45.509Z,90.60
2019-02-17T13:05:14.400Z,91.00
2019-02-17T13:07:43.187Z,90.60
2019-02-17T13:10:12.153Z,89.10
2019-02-17T13:12:41.059Z,89.00
2019-02-17T13:15:10.946Z,88.40
2019-02-17T13:17:39.835Z,88.80
2019-02-17T13:20:10.438Z,88.70
2019-02-17T13:22:39.224Z,87.90
2019-02-17T13:25:09.388Z,88.30
2019-02-17T13:27:38.135Z,88.30
2019-02-17T13:30:10.447Z,89.10
2019-02-17T13:32:39.219Z,89.40
2019-02-17T13:35:08.171Z,89.80
2019-02-17T13:37:36.935Z,89.50
2019-02-17T13:40:06.481Z,89.40
2019-02-17T13:42:35.267Z,88.70
2019-02-17T13:45:04.142Z,89.00
2019-02-17T13:47:32.908Z,88.50
2019-02-17T13:50:01.787Z,87.60
2019-02-17T13:52:32.067Z,87.80
2019-02-17T13:55:01.011Z,87.20
2019-02-17T13:57:29.778Z,86.80
2019-02-17T13:59:58.546Z,87.10
2019-02-17T14:02:27.385Z,86.90
2019-02-17T14:04:56.196Z,87.20
2019-02-17T14:07:24.993Z,86.40
2019-02-17T14:09:53.784Z,85.40
2019-02-17T14:12:22.569Z,85.90
2019-02-17T14:14:51.351Z,86.00
2019-02-17T14:17:20.141Z,86.10
2019-02-17T14:19:48.941Z,85.00
2019-02-17T14:22:17.766Z,85.40
2019-02-17T14:24:46.624Z,84.90
2019-02-17T14:27:15.376Z,86.10
2019-02-17T14:29:44.112Z,86.40
2019-02-17T14:32:12.900Z,87.10
2019-02-17T14:34:41.786Z,86.70
2019-02-17T14:37:10.550Z,86.30
2019-02-17T14:39:39.339Z,86.30
2019-02-17T14:42:08.095Z,86.20
2019-02-17T14:44:36.884Z,87.10
2019-02-17T14:47:06.029Z,85.60
2019-02-17T14:49:34.801Z,86.10
2019-02-17T14:52:03.622Z,86.60
2019-02-17T14:54:33.412Z,87.60
2019-02-17T14:57:02.238Z,89.30
2019-02-17T14:59:31.083Z,90.00
2019-02-17T15:01:59.993Z,90.40
2019-02-17T15:04:28.794Z,90.60
2019-02-17T15:06:57.562Z,90.70
2019-02-17T15:09:26.402Z,91.30
2019-02-17T15:11:55.241Z,91.30
2019-02-17T15:14:24.081Z,91.80
2019-02-17T15:16:53.230Z,92.50
2019-02-17T15:19:22.050Z,92.50
2019-02-17T15:21:50.902Z,92.70
2019-02-17T15:24:22.996Z,93.10
2019-02-17T15:26:52.167Z,93.50
2019-02-17T15:29:21.224Z,93.80
2019-02-17T15:31:50.033Z,94.00
2019-02-17T15:34:19.083Z,94.20
2019-02-17T15:36:51.750Z,94.40
2019-02-17T15:39:20.730Z,94.90
2019-02-17T15:41:50.004Z,95.30
2019-02-17T15:44:18.800Z,95.00
2019-02-17T15:46:47.560Z,94.80
2019-02-17T15:49:16.318Z,94.90
2019-02-17T15:51:45.126Z,95.20
2019-02-17T15:54:13.894Z,95.20
2019-02-17T15:56:42.722Z,95.30
2019-02-17T15:59:11.493Z,95.50
2019-02-17T16:01:40.320Z,95.80
2019-02-17T16:04:09.186Z,96.10
2019-02-17T16:06:38.044Z,96.20
2019-02-17T16:09:07.435Z,96.40
2019-02-17T16:11:36.400Z,96.60
2019-02-17T16:14:05.404Z,96.90
2019-02-17T16:16:34.359Z,97.20
2019-02-17T16:19:03.226Z,97.40
2019-02-17T16:21:32.194Z,97.60
2019-02-17T16:24:01.119Z,97.80
2019-02-17T16:26:29.983Z,97.90
2019-02-17T16:28:58.873Z,98.20
2019-02-17T16:31:27.875Z,98.40
2019-02-17T16:33:56.658Z,98.50
2019-02-17T16:36:25.507Z,98.80
2019-02-17T16:38:54.300Z,99.30
2019-02-17T16:41:23.194Z,99.40
2019-02-17T16:43:52.120Z,99.70
2019-02-17T16:46:20.979Z,99.90
2019-02-17T16:48:49.868Z,99.90
2019-02-17T16:51:18.804Z,99.90
2019-02-17T16:53:47.616Z,99.90
2019-02-17T16:56:16.472Z,99.90
2019-02-17T16:58:45.254Z,99.90
2019-02-17T17:01:14.140Z,99.90
2019-02-17T17:03:42.963Z,99.90
2019-02-17T17:06:11.982Z,99.90
2019-02-17T17:08:40.832Z,99.90
2019-02-17T17:11:09.728Z,99.90
2019-02-17T17:13:38.524Z,99.90
2019-02-17T17:16:07.476Z,99.90
2019-02-17T17:18:36.316Z,99.90
2019-02-17T17:21:05.164Z,99.90
2019-02-17T17:23:34.176Z,99.90
2019-02-17T17:26:04.063Z,99.90
2019-02-17T17:28:34.040Z,99.90
2019-02-17T17:31:03.662Z,99.90
2019-02-17T17:33:32.570Z,99.90
2019-02-17T17:36:02.316Z,99.90
2019-02-17T17:38:31.392Z,99.90
2019-02-17T17:41:00.190Z,99.90
2019-02-17T17:43:31.252Z,99.90
2019-02-17T17:46:00.116Z,99.90
2019-02-17T17:48:29.028Z,99.90
2019-02-17T17:50:57.930Z,99.90
2019-02-17T17:53:26.773Z,99.90
2019-02-17T17:55:55.627Z,99.90
2019-02-17T17:58:24.797Z,99.90
2019-02-17T18:00:53.606Z,99.90
2019-02-17T18:03:22.482Z,99.90
2019-02-17T18:05:51.422Z,99.90
2019-02-17T18:08:23.798Z,99.90
2019-02-17T18:10:58.436Z,99.90
2019-02-17T18:13:27.315Z,99.90
2019-02-17T18:15:57.559Z,99.90
2019-02-17T18:18:27.014Z,99.90
2019-02-17T18:20:56.176Z,99.90
2019-02-17T18:23:28.046Z,99.90
2019-02-17T18:25:56.975Z,99.90
2019-02-17T18:28:25.814Z,99.90
2019-02-17T18:30:54.765Z,99.90
2019-02-17T18:33:23.607Z,99.90
2019-02-17T18:35:52.936Z,99.90
2019-02-17T18:38:21.845Z,99.90
2019-02-17T18:40:53.983Z,99.90
2019-02-17T18:43:22.858Z,99.90
2019-02-17T18:45:51.665Z,99.90
2019-02-17T18:48:20.606Z,99.90
2019-02-17T18:50:58.763Z,99.90
2019-02-17T18:53:20.081Z,99.90
2019-02-17T18:55:49.368Z,99.90
2019-02-17T18:58:18.175Z,99.90
2019-02-17T19:00:47.575Z,99.90
2019-02-17T19:03:18.179Z,99.90
2019-02-17T19:05:47.488Z,99.90
2019-02-17T19:08:16.478Z,99.90
2019-02-17T19:10:51.914Z,99.90
2019-02-17T19:13:21.178Z,99.90
2019-02-17T19:15:50.118Z,99.90
2019-02-17T19:18:19.264Z,99.90
2019-02-17T19:20:48.101Z,99.90
2019-02-17T19:23:17.054Z,99.90
2019-02-17T19:25:46.247Z,99.90
2019-02-17T19:28:18.154Z,99.90
2019-02-17T19:30:47.326Z,99.90
2019-02-17T19:33:16.205Z,99.90
2019-02-17T19:35:47.152Z,99.90
2019-02-17T19:38:16.292Z,99.90
2019-02-17T19:40:45.809Z,99.90
2019-02-17T19:43:14.659Z,99.90
2019-02-17T19:45:43.680Z,99.90
2019-02-17T19:48:12.520Z,99.90
2019-02-17T19:50:43.831Z,99.90
2019-02-17T19:53:12.814Z,99.90
2019-02-17T19:55:41.938Z,99.90
2019-02-17T19:58:10.832Z,99.90
2019-02-17T20:00:39.869Z,99.90
2019-02-17T20:03:18.403Z,99.90
2019-02-17T20:05:52.274Z,99.90
2019-02-17T20:08:21.618Z,99.90
2019-02-17T20:10:50.599Z,99.90
2019-02-17T20:13:20.150Z,99.90
2019-02-17T20:15:49.242Z,99.90
2019-02-17T20:18:22.154Z,99.90
2019-02-17T20:20:51.190Z,99.90
2019-02-17T20:23:20.616Z,99.90
2019-02-17T20:25:51.740Z,99.90
2019-02-17T20:28:32.464Z,99.90
2019-02-17T20:30:51.602Z,99.90
2019-02-17T20:33:21.661Z,99.90
2019-02-17T20:35:51.218Z,99.90
2019-02-17T20:38:20.277Z,99.90
2019-02-17T20:40:49.286Z,99.90
2019-02-17T20:43:18.206Z,99.90
2019-02-17T20:45:47.203Z,99.90
2019-02-17T20:48:17.476Z,99.90
2019-02-17T20:50:47.795Z,99.90
2019-02-17T20:53:22.583Z,99.90
2019-02-17T20:55:51.438Z,99.90
2019-02-17T20:58:20.274Z,99.90
2019-02-17T21:00:49.705Z,99.90
2019-02-17T21:03:18.566Z,99.90
2019-02-17T21:05:53.762Z,99.90
2019-02-17T21:08:22.696Z,99.90
2019-02-17T21:10:51.652Z,99.90
2019-02-17T21:13:22.169Z,99.90
2019-02-17T21:15:51.099Z,99.90
2019-02-17T21:18:19.938Z,99.90
2019-02-17T21:20:48.911Z,99.90
2019-02-17T21:23:18.322Z,99.90
2019-02-17T21:25:48.339Z,99.90
2019-02-17T21:28:17.358Z,99.90
2019-02-17T21:30:46.341Z,99.90
2019-02-17T21:33:15.183Z,99.90
2019-02-17T21:35:44.074Z,99.90
2019-02-17T21:38:13.806Z,99.90
2019-02-17T21:40:42.783Z,99.90
2019-02-17T21:43:11.640Z,99.90
2019-02-17T21:45:45.700Z,99.90
2019-02-17T21:48:25.917Z,99.90
2019-02-17T21:50:54.761Z,99.90
2019-02-17T21:53:23.603Z,99.90
2019-02-17T21:55:52.398Z,99.90
2019-02-17T21:58:21.383Z,99.90
2019-02-17T22:00:52.003Z,99.90
2019-02-17T22:03:22.069Z,99.90
2019-02-17T22:05:51.057Z,99.90
2019-02-17T22:08:20.116Z,99.90
2019-02-17T22:10:48.901Z,99.90
2019-02-17T22:13:17.771Z,99.90
2019-02-17T22:15:51.107Z,99.90
2019-02-17T22:18:21.748Z,99.90
2019-02-17T22:21:13.104Z,99.90
2019-02-17T22:23:52.903Z,99.90
2019-02-17T22:26:24.902Z,99.90
2019-02-17T22:28:53.729Z,99.90
2019-02-17T22:31:22.555Z,99.90
2019-02-17T22:33:51.375Z,99.90
2019-02-17T22:36:21.493Z,99.90
2019-02-17T22:38:50.615Z,99.90
2019-02-17T22:41:19.586Z,99.90
2019-02-17T22:43:48.481Z,99.90
2019-02-17T22:46:17.245Z,99.90
2019-02-17T22:48:46.017Z,99.90
2019-02-17T22:51:15.014Z,99.90
2019-02-17T22:53:44.364Z,99.90
2019-02-17T22:56:13.291Z,99.90
2019-02-17T22:58:42.155Z,99.90
2019-02-17T23:01:15.077Z,99.90
2019-02-17T23:03:44.071Z,99.90
2019-02-17T23:06:12.939Z,99.90
2019-02-17T23:08:41.725Z,99.90
2019-02-17T23:11:10.557Z,99.90
2019-02-17T23:13:39.447Z,99.90
2019-02-17T23:16:09.915Z,99.90
2019-02-17T23:18:38.870Z,99.90
2019-02-17T23:21:08.111Z,99.90
2019-02-17T23:23:37.012Z,99.90
2019-02-17T23:26:08.494Z,99.90
2019-02-17T23:28:41.356Z,99.90
2019-02-17T23:31:10.152Z,99.90
2019-02-17T23:33:38.967Z,99.90
2019-02-17T23:36:07.986Z,99.90
2019-02-17T23:38:37.261Z,99.90
2019-02-17T23:41:08.681Z,99.90
2019-02-17T23:43:37.486Z,99.90
2019-02-17T23:46:06.273Z,99.90
2019-02-17T23:48:35.063Z,99.90
2019-02-17T23:51:13.242Z,99.90
2019-02-17T23:53:45.293Z,99.90
2019-02-17T23:56:14.112Z,99.90
2019-02-17T23:58:42.902Z,99.90
